Omer Refaelov

Olheiro - Hapoel Tel Aviv
22 Fev 2028
Terça-feira
Processo

Personalidade

Adaptabilidade (7) Ambição (6) Controvérsia (12) Lealdade (1) Pressão (7) Profissionalismo (19) Espírito Esportivo (15) Temperamento (4)

Perfil

Estilo de Treinamento Democrático
Licença Continental B
Determinação 6
Gestão de Pessoas 12
Motivação 8
Disciplina 10
Satisfação no Trabalho
100%
Fadiga
0%
Função Olheiro
Salário 63.6K p/s
Contrato 14.03.2029

Desempenho

Comportamento Bom
Eficácia do Treinamento
30%
Desenvolvimento do Jogador
55%
Prevenção de Lesões
35%
Implementação Tática
20%

Eventos Recentes

Participou de uma reunião de recrutamento agora
Recomendou um alvo de transferência agora
Participou de uma reunião de recrutamento 7d atrás
Recomendou um alvo de transferência 7d atrás
Recomendou um alvo de transferência 7d atrás
Recomendou um alvo de transferência 7d atrás
Observou uma partida 7d atrás
Observou uma partida 14d atrás

Monitorando agora

148
Jogador Clube Status Habilidade Confiança Observado Última observação Último voto
Lucas Camejo River Plate Ativo 90 / 96 40% 3 17.01.2028 -
Rashid Sumaila Maccabi Tel Aviv Ativo 112 / 111 76% 1 17.01.2028 Aprovar
Luca Williams-Barnett Tranmere Rovers Ativo 126 / 127 40% 1 17.01.2028 -
Luis Vidal Deportivo Pereira Ativo 84 / 87 40% 1 17.01.2028 -
Tomás Aranda Boca Juniors Ativo 122 / 116 40% 1 03.01.2028 -
Gilbert Bandama Maccabi Haifa Ativo 123 / 124 40% 1 03.01.2028 -
Samuel Posada Leones Ativo 91 / 88 40% 2 31.12.2027 -
Daniel Banjaqui Benfica Ativo 129 / 127 40% 1 31.12.2027 -
Joel Ezra Enyimba Ativo 86 / 105 40% 3 07.12.2027 -
Alejandro Almaraz Nueva Chicago Ativo 110 / 108 40% 5 07.12.2027 -
Ronan Kpakio Cardiff City Ativo 123 / 133 40% 1 07.12.2027 -
Mauro Carrizo Atlético Tucumán Ativo 95 / 101 40% 8 06.12.2027 -
Olivier Mambwa Young Boys Ativo 106 / 112 40% 1 06.12.2027 -
Matteo Pérez Vinlöf Dinamo Zagreb Ativo 126 / 127 40% 2 04.12.2027 -
Ignacio Fernández Boston River Ativo 101 / 108 40% 1 04.12.2027 -
Mads Bomholt Stabaek Ativo 115 / 121 40% 5 02.12.2027 -
Dmitry Pestryakov Dinamo Moscow Ativo 116 / 136 40% 2 02.12.2027 -
Esquerdinha Shrewsbury Town Ativo 122 / 117 40% 1 02.12.2027 -
Onuorah Onyedika Kun Khalifat Ativo 79 / 95 40% 4 25.11.2027 -
Bahia Criciuma Ativo 110 / 124 40% 1 25.11.2027 -
Matías Canedo Rampla Juniors Ativo 87 / 96 40% 4 23.11.2027 -
Hervin Goyes Deportivo Pasto Ativo 108 / 115 40% 6 20.11.2027 -
Nazareno Roselli Defensa y Justicia Ativo 114 / 112 40% 1 20.11.2027 -
Sam Curtis Cambridge United Ativo 114 / 118 40% 1 19.11.2027 -
Junior Machis Atletico Venezuela Ativo 83 / 81 40% 3 18.11.2027 -
Marvelous Freedom Ikorodu City Ativo 81 / 101 40% 5 03.11.2027 -
Fillip Jenssen Riise Stabaek Ativo 108 / 102 40% 1 01.11.2027 -
Olaniyi Saheed Kwara United Ativo 95 / 98 40% 1 30.10.2027 -
José Correa Deportivo Tachira Ativo 85 / 95 40% 1 30.10.2027 -
Tobias Moi Bodo/Glimt Ativo 104 / 119 40% 1 29.10.2027 -
Gift Udoh Ikorodu City Ativo 92 / 98 40% 1 29.10.2027 -
David Asayure Lokomotivi Ativo 77 / 73 40% 1 29.10.2027 -
Josh Nichols Tranmere Rovers Ativo 122 / 119 40% 1 27.10.2027 -
David Damboama El-Kanemi Warriors Ativo 97 / 86 40% 4 26.10.2027 -
Nika Kvaratskhelia Tskhinvali Ativo 86 / 87 40% 2 26.10.2027 -
Muminhon Bahodirxonov Neftchi Ativo 94 / 93 40% 1 24.10.2027 -
Godwin Oham Warri Wolves Ativo 77 / 101 40% 2 22.10.2027 -
Juan Camilo Córdoba Deportivo Pereira Ativo 89 / 91 40% 3 22.10.2027 -
Juan Morán Godoy Cruz Ativo 107 / 111 40% 2 22.10.2027 -
Óscar Hinojosa Metropolitanos Ativo 83 / 89 40% 1 19.10.2027 -
Esteban de Lima Tacuarembo Ativo 84 / 107 40% 1 19.10.2027 -
Daniel Gomez Valledupar Ativo 77 / 101 40% 1 16.10.2027 -
Chibueze Oputa Rangers International Ativo 86 / 87 40% 1 10.10.2027 -
Agustín Obregón River Plate Ativo 103 / 128 40% 1 05.10.2027 -
Emiliano Bértoli Patronato Ativo 90 / 103 40% 2 18.09.2027 -
Felipe Obradovich Ferro Carril Oeste Ativo 100 / 112 40% 1 15.09.2027 -
Ricky Atletico Venezuela Ativo 90 / 94 40% 1 15.09.2027 -
Teo Rodríguez Pagano River Plate Ativo 112 / 118 40% 1 09.09.2027 -
Mikkel Hope Haugesund Ativo 94 / 106 40% 1 09.09.2027 -
Mpho Khethang AS Police Ativo 91 / 100 40% 2 06.09.2027 -
Konadu Yiadom Hapoel Kfar Saba Ativo 94 / 99 72% 1 07.06.2027 Aprovar
Ollie Tanner Cardiff City Ativo 123 / 118 40% 3 30.05.2027 Observar
Lewis McCann Fleetwood Town Ativo 103 / 105 40% 1 30.05.2027 -
Kwame Poku Queens Park Rangers Ativo 127 / 134 40% 3 29.05.2027 -
Ethan Williams Peterborough United Ativo 118 / 113 40% 2 29.05.2027 -
Sam Bell Bristol City Ativo 117 / 123 40% 2 29.05.2027 -
Daniel Costa Sporting CP Ativo 89 / 93 40% 5 28.05.2027 -
Zane Albarus Cambridge United Ativo 94 / 90 40% 3 28.05.2027 -
Juan Mosquera Sheffield Wednesday Ativo 126 / 119 40% 1 28.05.2027 -
David Turnbull Cardiff City Ativo 117 / 129 40% 3 27.05.2027 -
Milan van Ewijk Mansfield Town Ativo 141 / 131 40% 3 27.05.2027 -
Tyreece Campbell Charlton Athletic Ativo 117 / 116 40% 2 27.05.2027 -
Isaac Price West Bromwich Albion Ativo 135 / 138 40% 4 26.05.2027 -
Zeidane Inoussa Swansea City Ativo 119 / 119 40% 4 24.05.2027 Observar
Tiago Freitas Benfica Ativo 108 / 113 40% 2 24.05.2027 -
Richard Koné Queens Park Rangers Ativo 131 / 130 40% 3 24.05.2027 -
Finley McAllister Grimsby Town Ativo 94 / 98 40% 2 24.05.2027 -
Alex Lowry Wycombe Wanderers Ativo 124 / 122 40% 1 24.05.2027 -
Cian Ashford Cardiff City Ativo 122 / 127 40% 1 22.05.2027 -
Stanley Mills Oxford United Ativo 123 / 114 40% 1 22.05.2027 -
Ernie Weaver AFC Wimbledon Ativo 110 / 113 40% 2 20.05.2027 -
Dylan Lawlor Cardiff City Ativo 111 / 129 40% 1 20.05.2027 -
Adam Bakoune Ospitaletto Ativo 102 / 104 40% 1 20.05.2027 -
Darryl Bakola Padova Ativo 101 / 112 40% 1 19.05.2027 -
Juan Giménez Celta Ativo 116 / 125 40% 1 18.05.2027 -
Jack Diamond Stockport County Ativo 117 / 120 40% 2 17.05.2027 -
Joseph Hungbo Wigan Athletic Ativo 120 / 112 40% 1 17.05.2027 -
Tyler Goodrham Oxford United Ativo 126 / 114 40% 3 16.05.2027 -
Alex Robertson Cardiff City Ativo 111 / 111 40% 1 16.05.2027 -
Kelly Saravanan Salford City Ativo 114 / 117 40% 1 13.05.2027 -
Kristoffer Lund Birmingham Ativo 133 / 124 40% 1 10.05.2027 -
Xavier Amaechi Plymouth Argyle Ativo 113 / 98 40% 4 09.05.2027 -
Jack Currie Oxford United Ativo 120 / 114 40% 4 08.05.2027 -
Tyrese Campbell Sheffield United Ativo 123 / 122 40% 1 05.05.2027 -
Harry Clarke Preston Ativo 118 / 121 40% 1 05.05.2027 -
Koki Saito Queens Park Rangers Ativo 124 / 135 40% 3 04.05.2027 -
Hélio Varela Maccabi Tel Aviv Ativo 130 / 123 69% 5 03.05.2027 Aprovar
Jacques Ekomié Wrexham Ativo 134 / 132 40% 1 03.05.2027 -
Eom Ji-Sung Swansea City Ativo 109 / 111 40% 1 02.05.2027 -
Paddy Lane Reading Ativo 118 / 114 40% 1 29.04.2027 -
Edwin Asamoah Berekum Chelsea Ativo 93 / 86 40% 3 26.04.2027 -
Davide Bartesaghi AC Milan Ativo 128 / 144 40% 2 26.04.2027 -
Martim Cunha Porto Ativo 106 / 112 40% 1 26.04.2027 -
Bosun Lawal Stoke City Ativo 134 / 128 40% 1 26.04.2027 -
Derensili Sanches Fernandes Huddersfield Town Ativo 121 / 131 40% 3 24.04.2027 -
Chem Campbell Stevenage Ativo 120 / 126 40% 2 23.04.2027 -
Ronald Swansea City Ativo 128 / 128 40% 1 23.04.2027 -
Othmane Maamma Watford Ativo 126 / 131 40% 1 23.04.2027 -
Daniel Kyerewaa Reading Ativo 105 / 117 40% 2 21.04.2027 -
Sascha Britschgi Padova Ativo 118 / 133 40% 1 20.04.2027 -
Scott Twine Bristol City Ativo 135 / 122 40% 3 16.04.2027 -
Cathal Heffernan Harrogate Town Ativo 85 / 97 40% 1 14.04.2027 -
Isaiah Jones Luton Town Ativo 135 / 128 40% 2 08.04.2027 -
Mikey Johnston West Bromwich Albion Ativo 114 / 125 40% 1 08.04.2027 -
Dylan Levitt Leyton Orient Ativo 111 / 122 40% 1 07.04.2027 -
George Earthy Reading Ativo 105 / 127 40% 1 03.04.2027 -
Darlin Yongwa Norwich City Ativo 124 / 117 40% 1 03.04.2027 -
Hakim Sulemana Medeama Ativo 99 / 95 40% 3 02.04.2027 -
Giorgi Chakvetadze Watford Ativo 133 / 126 40% 1 01.04.2027 -
Willy Agada Hapoel Haifa Ativo 113 / 116 40% 2 30.03.2027 -
Filippo Ranocchia Palermo Ativo 129 / 139 40% 1 30.03.2027 -
Harvey White Stevenage Ativo 106 / 123 40% 1 28.03.2027 -
Riley Owen Trento Ativo 100 / 110 40% 2 27.03.2027 -
Lior Kasa Hapoel Kiryat Shmona Ativo 107 / 106 40% 1 27.03.2027 -
Đorđe Pantelić Spartak Kostroma Ativo 116 / 95 40% 2 24.03.2027 -
Santiago Pierotti Lecce Ativo 137 / 124 40% 2 23.03.2027 -
Andrea Colpani Monza Ativo 138 / 134 40% 1 23.03.2027 -
Tobias Slotsager Casertana Ativo 111 / 122 40% 2 19.03.2027 -
Cédric Don Maccabi Haifa Ativo 129 / 118 40% 1 17.03.2027 -
Bruninho Maccabi Haifa Ativo 117 / 119 40% 2 11.03.2027 -
John Yeboah Venezia Ativo 111 / 123 40% 1 11.03.2027 -
Sebastián Arce Rodina Ativo 110 / 110 40% 1 11.03.2027 -
Nikolay Bondarenko Irkutsk Ativo 64 / 92 40% 1 10.03.2027 -
Maxim Radchenko Rostov Ativo 91 / 81 40% 1 10.03.2027 -
Mohammed Djiku Wa All Stars Ativo 92 / 85 40% 1 07.03.2027 -
Gonçalo Oliveira Benfica Ativo 118 / 103 40% 1 02.03.2027 -
Juan Manuel Boselli Krasnodar Ativo 121 / 121 40% 1 24.02.2027 -
Matheus Davó Maccabi Netanya Ativo 122 / 115 40% 3 23.02.2027 -
Vladimir Khubulov Dinamo Makhachkala Ativo 103 / 113 40% 2 14.02.2027 -
Suleiman Camara Slovan Bratislava Ativo 126 / 111 40% 2 13.02.2027 -
Danil Lipovoy Ufa Ativo 109 / 97 40% 1 13.02.2027 -
Filip Kaloč Ludogorets Ativo 129 / 129 40% 1 10.02.2027 -
Christian Krasnodar Ativo 138 / 132 40% 2 09.02.2027 -
Petar Stanić Ludogorets Ativo 143 / 135 40% 1 09.02.2027 -
Reda Khadra Qarabag Ativo 135 / 141 40% 1 08.02.2027 -
Ethane Azoulay Maccabi Haifa Ativo 121 / 124 40% 2 04.02.2027 -
Xander Severina Maccabi Haifa Ativo 118 / 120 40% 1 03.02.2027 -
Joseph Wakaso Wa All Stars Ativo 103 / 114 40% 1 01.02.2027 -
Rubens Dinamo Moscow Ativo 136 / 133 40% 1 01.02.2027 -
Danil Glebov Dinamo Moscow Ativo 135 / 128 40% 1 01.02.2027 -
Cheveyo Tsawa Club Brugge Ativo 110 / 128 40% 1 31.12.2026 -
Raymond Agyemang Aduana Stars Ativo 80 / 74 40% 1 31.12.2026 -
Romuald Sawadogo Hapoel Raanana Ativo 89 / 101 40% 1 31.08.2026 -
Roman Dixon Walsall Ativo 93 / 103 40% 1 31.08.2026 -
Kervin Andrade Maccabi Tel Aviv Ativo 111 / 126 40% 1 18.08.2026 -
Dylan Gorosito Villarreal Ativo 102 / 125 40% 1 18.08.2026 -
Ignasi Vilarrasa Burgos Ativo 113 / 128 40% 1 01.08.2026 -
Víctor García Levante Ativo 115 / 112 40% 1 01.08.2026 -